ETD1914 GVAC-GOBD
Flight info
| Callsign | ETD1914 |
|---|---|
| Flight time | 0h 56m |
| Altitude | 37000 |
| Route | IRPOT1A POLMO DCT LUMPO DCT LIGOV LIGOV1A |
| Aircraft | A343/H-SDE2E3FGHIJ4J5M1RWXY/LB1D1 |
Departure
| Time | 2026-04-21 17:17 |
|---|---|
| Airport | Amílcar Cabral International Airport (GVAC) |
Arrival
| Time | 2026-04-21 18:13 |
|---|---|
| Airport | Blaise Diagne International Airport (GOBD) |
| Time | Latitude | Longitude | Altitude | Speed | Heading |
|---|---|---|---|---|---|
| 2026-04-21 16:26 | 16.73170 | -22.94501 | 203 ft | 0 kts | 90° |
| 2026-04-21 17:03 | 16.73170 | -22.94522 | 188 ft | 4 kts | 96° |
| 2026-04-21 17:03 | 16.73175 | -22.94550 | 191 ft | 4 kts | 106° |
| 2026-04-21 17:03 | 16.73185 | -22.94575 | 204 ft | 4 kts | 124° |
| 2026-04-21 17:04 | 16.73202 | -22.94593 | 204 ft | 4 kts | 168° |
| 2026-04-21 17:04 | 16.73213 | -22.94594 | 188 ft | 1 kts | 179° |
| 2026-04-21 17:11 | 16.73206 | -22.94594 | 202 ft | 2 kts | 179° |
| 2026-04-21 17:11 | 16.73193 | -22.94594 | 188 ft | 2 kts | 179° |
| 2026-04-21 17:11 | 16.73172 | -22.94593 | 188 ft | 4 kts | 178° |
| 2026-04-21 17:12 | 16.73141 | -22.94592 | 188 ft | 5 kts | 176° |
| 2026-04-21 17:12 | 16.73101 | -22.94593 | 188 ft | 5 kts | 197° |
| 2026-04-21 17:12 | 16.73079 | -22.94624 | 201 ft | 6 kts | 247° |
| 2026-04-21 17:12 | 16.73070 | -22.94669 | 203 ft | 7 kts | 255° |
| 2026-04-21 17:13 | 16.73038 | -22.94691 | 188 ft | 6 kts | 189° |
| 2026-04-21 17:13 | 16.72994 | -22.94690 | 200 ft | 8 kts | 180° |
| 2026-04-21 17:13 | 16.72919 | -22.94691 | 187 ft | 13 kts | 180° |
| 2026-04-21 17:13 | 16.72822 | -22.94691 | 190 ft | 15 kts | 179° |
| 2026-04-21 17:14 | 16.72714 | -22.94688 | 201 ft | 16 kts | 178° |
| 2026-04-21 17:14 | 16.72597 | -22.94685 | 201 ft | 17 kts | 178° |
| 2026-04-21 17:14 | 16.72488 | -22.94684 | 191 ft | 10 kts | 181° |
| 2026-04-21 17:14 | 16.72437 | -22.94692 | 187 ft | 6 kts | 198° |
| 2026-04-21 17:15 | 16.72412 | -22.94723 | 187 ft | 6 kts | 248° |
| 2026-04-21 17:15 | 16.72406 | -22.94773 | 187 ft | 8 kts | 266° |
| 2026-04-21 17:15 | 16.72403 | -22.94839 | 191 ft | 10 kts | 268° |
| 2026-04-21 17:15 | 16.72420 | -22.94883 | 195 ft | 4 kts | 334° |
| 2026-04-21 17:16 | 16.72440 | -22.94885 | 187 ft | 0 kts | 354° |
| 2026-04-21 17:16 | 16.72587 | -22.94894 | 200 ft | 57 kts | 357° |
| 2026-04-21 17:16 | 16.73259 | -22.94895 | 193 ft | 133 kts | 360° |
| 2026-04-21 17:17 | 16.74397 | -22.94911 | 310 ft | 185 kts | 359° |
| 2026-04-21 17:17 | 16.75717 | -22.95068 | 1043 ft | 194 kts | 355° |
| 2026-04-21 17:17 | 16.77113 | -22.95156 | 1967 ft | 212 kts | 1° |
| 2026-04-21 17:17 | 16.78642 | -22.95111 | 2703 ft | 231 kts | 4° |
| 2026-04-21 17:18 | 16.80283 | -22.95046 | 3513 ft | 240 kts | 2° |
| 2026-04-21 17:18 | 16.81976 | -22.95004 | 4378 ft | 249 kts | 359° |
| 2026-04-21 17:18 | 16.83763 | -22.94887 | 4985 ft | 268 kts | 7° |
| 2026-04-21 17:18 | 16.85533 | -22.94126 | 5669 ft | 285 kts | 34° |
| 2026-04-21 17:19 | 16.86806 | -22.92508 | 6446 ft | 298 kts | 65° |
| 2026-04-21 17:19 | 16.87222 | -22.90368 | 7197 ft | 305 kts | 89° |
| 2026-04-21 17:19 | 16.87238 | -22.88138 | 8005 ft | 310 kts | 92° |
| 2026-04-21 17:19 | 16.87213 | -22.85875 | 8855 ft | 313 kts | 92° |
| 2026-04-21 17:20 | 16.87198 | -22.83621 | 9693 ft | 317 kts | 92° |
| 2026-04-21 17:20 | 16.87195 | -22.81255 | 10348 ft | 328 kts | 92° |
| 2026-04-21 17:20 | 16.87197 | -22.78833 | 10692 ft | 348 kts | 92° |
| 2026-04-21 17:20 | 16.86980 | -22.76261 | 10985 ft | 364 kts | 107° |
| 2026-04-21 17:21 | 16.85913 | -22.73850 | 11329 ft | 371 kts | 127° |
| 2026-04-21 17:21 | 16.84420 | -22.71614 | 11845 ft | 379 kts | 130° |
| 2026-04-21 17:21 | 16.82865 | -22.69364 | 12455 ft | 385 kts | 130° |
| 2026-04-21 17:21 | 16.81295 | -22.67077 | 13101 ft | 390 kts | 129° |
| 2026-04-21 17:22 | 16.80251 | -22.65547 | 13541 ft | 393 kts | 129° |
| 2026-04-21 17:22 | 16.78121 | -22.62411 | 14352 ft | 399 kts | 129° |
| 2026-04-21 17:22 | 16.76535 | -22.60070 | 14942 ft | 402 kts | 129° |
| 2026-04-21 17:22 | 16.74913 | -22.57673 | 15551 ft | 406 kts | 129° |
| 2026-04-21 17:23 | 16.73276 | -22.55254 | 16170 ft | 410 kts | 129° |
| 2026-04-21 17:23 | 16.71622 | -22.52810 | 16797 ft | 414 kts | 128° |
| 2026-04-21 17:23 | 16.69952 | -22.50342 | 17426 ft | 418 kts | 128° |
| 2026-04-21 17:23 | 16.68268 | -22.47854 | 18055 ft | 422 kts | 128° |
| 2026-04-21 17:24 | 16.66567 | -22.45342 | 18593 ft | 426 kts | 128° |
| 2026-04-21 17:24 | 16.64843 | -22.42797 | 19031 ft | 433 kts | 128° |
| 2026-04-21 17:24 | 16.63092 | -22.40214 | 19463 ft | 439 kts | 127° |
| 2026-04-21 17:24 | 16.61341 | -22.37631 | 19909 ft | 445 kts | 127° |
| 2026-04-21 17:25 | 16.59546 | -22.34983 | 20358 ft | 450 kts | 127° |
| 2026-04-21 17:25 | 16.57727 | -22.32301 | 20781 ft | 456 kts | 127° |
| 2026-04-21 17:25 | 16.55907 | -22.29572 | 21214 ft | 462 kts | 124° |
| 2026-04-21 17:25 | 16.54334 | -22.26632 | 21636 ft | 468 kts | 116° |
| 2026-04-21 17:26 | 16.52970 | -22.23536 | 22065 ft | 472 kts | 114° |
| 2026-04-21 17:26 | 16.51631 | -22.20391 | 22462 ft | 477 kts | 114° |
| 2026-04-21 17:26 | 16.50736 | -22.18290 | 22734 ft | 481 kts | 114° |
| 2026-04-21 17:26 | 16.48925 | -22.14052 | 23329 ft | 485 kts | 113° |
| 2026-04-21 17:27 | 16.47543 | -22.10827 | 23708 ft | 490 kts | 113° |
| 2026-04-21 17:27 | 16.46148 | -22.07578 | 24039 ft | 493 kts | 114° |
| 2026-04-21 17:27 | 16.44742 | -22.04307 | 24406 ft | 496 kts | 114° |
| 2026-04-21 17:27 | 16.43328 | -22.01019 | 24778 ft | 499 kts | 114° |
| 2026-04-21 17:28 | 16.41902 | -21.97708 | 25144 ft | 502 kts | 114° |
| 2026-04-21 17:28 | 16.40954 | -21.95507 | 25377 ft | 504 kts | 114° |
| 2026-04-21 17:28 | 16.39515 | -21.92169 | 25735 ft | 507 kts | 114° |
| 2026-04-21 17:28 | 16.38064 | -21.88804 | 26092 ft | 510 kts | 114° |
| 2026-04-21 17:29 | 16.36131 | -21.84322 | 26568 ft | 514 kts | 114° |
| 2026-04-21 17:29 | 16.34659 | -21.80914 | 26908 ft | 518 kts | 115° |
| 2026-04-21 17:29 | 16.33171 | -21.77468 | 27078 ft | 526 kts | 115° |
| 2026-04-21 17:29 | 16.31661 | -21.73974 | 27223 ft | 533 kts | 115° |
| 2026-04-21 17:30 | 16.30649 | -21.71634 | 27329 ft | 538 kts | 115° |
| 2026-04-21 17:30 | 16.29106 | -21.68068 | 27570 ft | 542 kts | 115° |
| 2026-04-21 17:30 | 16.27552 | -21.64477 | 27846 ft | 546 kts | 115° |
| 2026-04-21 17:30 | 16.26048 | -21.60842 | 28134 ft | 549 kts | 112° |
| 2026-04-21 17:31 | 16.24683 | -21.57119 | 28433 ft | 552 kts | 110° |
| 2026-04-21 17:31 | 16.22966 | -21.52125 | 28884 ft | 554 kts | 110° |
| 2026-04-21 17:31 | 16.21677 | -21.48341 | 29238 ft | 555 kts | 110° |
| 2026-04-21 17:31 | 16.20816 | -21.45837 | 29501 ft | 555 kts | 110° |
| 2026-04-21 17:32 | 16.19500 | -21.42059 | 29898 ft | 555 kts | 110° |
| 2026-04-21 17:32 | 16.18169 | -21.38290 | 30243 ft | 556 kts | 111° |
| 2026-04-21 17:32 | 16.16826 | -21.34527 | 30633 ft | 554 kts | 111° |
| 2026-04-21 17:32 | 16.15480 | -21.30778 | 31042 ft | 552 kts | 112° |
| 2026-04-21 17:33 | 16.14139 | -21.27050 | 31459 ft | 549 kts | 112° |
| 2026-04-21 17:33 | 16.12369 | -21.22135 | 32000 ft | 547 kts | 112° |
| 2026-04-21 17:33 | 16.11470 | -21.19639 | 32268 ft | 545 kts | 112° |
| 2026-04-21 17:33 | 16.10141 | -21.15952 | 32647 ft | 544 kts | 113° |
| 2026-04-21 17:34 | 16.08835 | -21.12327 | 33006 ft | 542 kts | 113° |
| 2026-04-21 17:34 | 16.07514 | -21.08661 | 33334 ft | 542 kts | 114° |
| 2026-04-21 17:34 | 16.06192 | -21.04995 | 33682 ft | 540 kts | 114° |
| 2026-04-21 17:34 | 16.04875 | -21.01345 | 34033 ft | 539 kts | 114° |
| 2026-04-21 17:35 | 16.03560 | -20.97701 | 34330 ft | 537 kts | 114° |
| 2026-04-21 17:35 | 16.02249 | -20.94070 | 34591 ft | 537 kts | 114° |
| 2026-04-21 17:35 | 16.00938 | -20.90442 | 34851 ft | 536 kts | 114° |
| 2026-04-21 17:35 | 15.99626 | -20.86814 | 35111 ft | 536 kts | 114° |
| 2026-04-21 17:36 | 15.98315 | -20.83192 | 35379 ft | 534 kts | 114° |
| 2026-04-21 17:36 | 15.97014 | -20.79597 | 35764 ft | 530 kts | 114° |
| 2026-04-21 17:36 | 15.95732 | -20.76058 | 35971 ft | 531 kts | 114° |
| 2026-04-21 17:36 | 15.94428 | -20.72462 | 36166 ft | 532 kts | 114° |
| 2026-04-21 17:37 | 15.93123 | -20.68866 | 36393 ft | 531 kts | 114° |
| 2026-04-21 17:37 | 15.91820 | -20.65276 | 36645 ft | 531 kts | 114° |
| 2026-04-21 17:37 | 15.90517 | -20.61689 | 36868 ft | 531 kts | 114° |
| 2026-04-21 17:37 | 15.89210 | -20.58094 | 36939 ft | 534 kts | 114° |
| 2026-04-21 17:38 | 15.86556 | -20.50804 | 36929 ft | 544 kts | 114° |
| 2026-04-21 17:38 | 15.83904 | -20.43519 | 36930 ft | 542 kts | 114° |
| 2026-04-21 17:39 | 15.81234 | -20.36189 | 36931 ft | 543 kts | 114° |
| 2026-04-21 17:39 | 15.78561 | -20.28864 | 36927 ft | 543 kts | 114° |
| 2026-04-21 17:40 | 15.75885 | -20.21538 | 36923 ft | 543 kts | 114° |
| 2026-04-21 17:40 | 15.73205 | -20.14213 | 36924 ft | 543 kts | 114° |
| 2026-04-21 17:41 | 15.70545 | -20.06949 | 36925 ft | 541 kts | 114° |
| 2026-04-21 17:41 | 15.67871 | -19.99656 | 36939 ft | 541 kts | 114° |
| 2026-04-21 17:42 | 15.65250 | -19.92340 | 36927 ft | 541 kts | 113° |
| 2026-04-21 17:42 | 15.62648 | -19.85023 | 36923 ft | 541 kts | 113° |
| 2026-04-21 17:43 | 15.60037 | -19.77709 | 36909 ft | 541 kts | 113° |
| 2026-04-21 17:43 | 15.57436 | -19.70437 | 36915 ft | 541 kts | 113° |
| 2026-04-21 17:44 | 15.54815 | -19.63122 | 36923 ft | 540 kts | 113° |
| 2026-04-21 17:44 | 15.52238 | -19.55928 | 36917 ft | 527 kts | 113° |
| 2026-04-21 17:45 | 15.49687 | -19.48825 | 36921 ft | 525 kts | 113° |
| 2026-04-21 17:45 | 15.47149 | -19.41780 | 36911 ft | 525 kts | 114° |
| 2026-04-21 17:46 | 15.44054 | -19.34948 | 36908 ft | 522 kts | 120° |
| 2026-04-21 17:46 | 15.40803 | -19.28236 | 36912 ft | 521 kts | 120° |
| 2026-04-21 17:47 | 15.37559 | -19.21527 | 36912 ft | 521 kts | 120° |
| 2026-04-21 17:47 | 15.35940 | -19.18177 | 36802 ft | 520 kts | 120° |
| 2026-04-21 17:47 | 15.34320 | -19.14825 | 36560 ft | 521 kts | 120° |
| 2026-04-21 17:48 | 15.32718 | -19.11512 | 36321 ft | 522 kts | 120° |
| 2026-04-21 17:48 | 15.31090 | -19.08144 | 36072 ft | 524 kts | 120° |
| 2026-04-21 17:48 | 15.29456 | -19.04767 | 35838 ft | 525 kts | 120° |
| 2026-04-21 17:48 | 15.27820 | -19.01385 | 35513 ft | 524 kts | 120° |
| 2026-04-21 17:49 | 15.26186 | -18.98011 | 34883 ft | 525 kts | 120° |
| 2026-04-21 17:49 | 15.24542 | -18.94617 | 34168 ft | 528 kts | 120° |
| 2026-04-21 17:49 | 15.22890 | -18.91210 | 33393 ft | 532 kts | 120° |
| 2026-04-21 17:49 | 15.21225 | -18.87777 | 32609 ft | 535 kts | 119° |
| 2026-04-21 17:50 | 15.19563 | -18.84348 | 32057 ft | 531 kts | 119° |
| 2026-04-21 17:50 | 15.17924 | -18.80970 | 31356 ft | 533 kts | 118° |
| 2026-04-21 17:50 | 15.16261 | -18.77545 | 30782 ft | 531 kts | 118° |
| 2026-04-21 17:50 | 15.14608 | -18.74140 | 30259 ft | 528 kts | 117° |
| 2026-04-21 17:51 | 15.12962 | -18.70753 | 29706 ft | 526 kts | 117° |
| 2026-04-21 17:51 | 15.11326 | -18.67382 | 29154 ft | 522 kts | 117° |
| 2026-04-21 17:51 | 15.09702 | -18.64036 | 28615 ft | 518 kts | 117° |
| 2026-04-21 17:51 | 15.08092 | -18.60722 | 28094 ft | 514 kts | 117° |
| 2026-04-21 17:52 | 15.06511 | -18.57474 | 27565 ft | 510 kts | 116° |
| 2026-04-21 17:52 | 15.04922 | -18.54210 | 27064 ft | 506 kts | 116° |
| 2026-04-21 17:52 | 15.03344 | -18.50970 | 26542 ft | 502 kts | 116° |
| 2026-04-21 17:52 | 15.01776 | -18.47754 | 26015 ft | 499 kts | 116° |
| 2026-04-21 17:53 | 15.00219 | -18.44559 | 25502 ft | 496 kts | 116° |
| 2026-04-21 17:53 | 14.98669 | -18.41383 | 24977 ft | 493 kts | 116° |
| 2026-04-21 17:53 | 14.97131 | -18.38231 | 24476 ft | 489 kts | 116° |
| 2026-04-21 17:53 | 14.95602 | -18.35102 | 23959 ft | 487 kts | 116° |
| 2026-04-21 17:54 | 14.94080 | -18.31984 | 23431 ft | 484 kts | 116° |
| 2026-04-21 17:54 | 14.92588 | -18.28932 | 22885 ft | 480 kts | 116° |
| 2026-04-21 17:54 | 14.91089 | -18.25865 | 22359 ft | 475 kts | 116° |
| 2026-04-21 17:54 | 14.89605 | -18.22831 | 21880 ft | 471 kts | 116° |
| 2026-04-21 17:55 | 14.88138 | -18.19831 | 21378 ft | 466 kts | 116° |
| 2026-04-21 17:55 | 14.86683 | -18.16858 | 20890 ft | 461 kts | 117° |
| 2026-04-21 17:55 | 14.85245 | -18.13920 | 20402 ft | 456 kts | 117° |
| 2026-04-21 17:55 | 14.83818 | -18.11007 | 19919 ft | 452 kts | 117° |
| 2026-04-21 17:56 | 14.82406 | -18.08126 | 19439 ft | 448 kts | 118° |
| 2026-04-21 17:56 | 14.81007 | -18.05272 | 18970 ft | 443 kts | 118° |
| 2026-04-21 17:56 | 14.79620 | -18.02442 | 18510 ft | 439 kts | 118° |
| 2026-04-21 17:56 | 14.78268 | -17.99685 | 18027 ft | 434 kts | 118° |
| 2026-04-21 17:57 | 14.76911 | -17.96923 | 17508 ft | 430 kts | 118° |
| 2026-04-21 17:57 | 14.75565 | -17.94180 | 17030 ft | 425 kts | 118° |
| 2026-04-21 17:57 | 14.74236 | -17.91474 | 16572 ft | 419 kts | 118° |
| 2026-04-21 17:57 | 14.72925 | -17.88806 | 16114 ft | 414 kts | 118° |
| 2026-04-21 17:58 | 14.71625 | -17.86162 | 15657 ft | 410 kts | 118° |
| 2026-04-21 17:58 | 14.70339 | -17.83547 | 15186 ft | 406 kts | 118° |
| 2026-04-21 17:58 | 14.69084 | -17.80996 | 14745 ft | 402 kts | 118° |
| 2026-04-21 17:58 | 14.67824 | -17.78433 | 14291 ft | 398 kts | 118° |
| 2026-04-21 17:59 | 14.66575 | -17.75896 | 13860 ft | 395 kts | 118° |
| 2026-04-21 17:59 | 14.65336 | -17.73379 | 13379 ft | 391 kts | 118° |
| 2026-04-21 17:59 | 14.64105 | -17.70890 | 12918 ft | 387 kts | 119° |
| 2026-04-21 17:59 | 14.62892 | -17.68431 | 12476 ft | 382 kts | 119° |
| 2026-04-21 18:00 | 14.61691 | -17.66007 | 12042 ft | 377 kts | 119° |
| 2026-04-21 18:00 | 14.60509 | -17.63602 | 11608 ft | 373 kts | 118° |
| 2026-04-21 18:00 | 14.59342 | -17.61231 | 11186 ft | 368 kts | 119° |
| 2026-04-21 18:00 | 14.58190 | -17.58935 | 10782 ft | 363 kts | 120° |
| 2026-04-21 18:01 | 14.57061 | -17.56646 | 10575 ft | 352 kts | 118° |
| 2026-04-21 18:01 | 14.55980 | -17.54435 | 10458 ft | 338 kts | 119° |
| 2026-04-21 18:01 | 14.54938 | -17.52306 | 10314 ft | 326 kts | 118° |
| 2026-04-21 18:01 | 14.53949 | -17.50290 | 10156 ft | 303 kts | 118° |
| 2026-04-21 18:02 | 14.53029 | -17.48419 | 9912 ft | 287 kts | 119° |
| 2026-04-21 18:02 | 14.52122 | -17.46586 | 9602 ft | 283 kts | 120° |
| 2026-04-21 18:02 | 14.51254 | -17.44829 | 9287 ft | 278 kts | 119° |
| 2026-04-21 18:02 | 14.50360 | -17.43044 | 9033 ft | 282 kts | 119° |
| 2026-04-21 18:03 | 14.49469 | -17.41245 | 8725 ft | 281 kts | 118° |
| 2026-04-21 18:03 | 14.48579 | -17.39439 | 8444 ft | 283 kts | 118° |
| 2026-04-21 18:03 | 14.47693 | -17.37643 | 8187 ft | 280 kts | 118° |
| 2026-04-21 18:03 | 14.46809 | -17.35854 | 7863 ft | 280 kts | 118° |
| 2026-04-21 18:04 | 14.45926 | -17.34068 | 7550 ft | 279 kts | 118° |
| 2026-04-21 18:04 | 14.45044 | -17.32287 | 7209 ft | 279 kts | 118° |
| 2026-04-21 18:04 | 14.44164 | -17.30508 | 6926 ft | 278 kts | 118° |
| 2026-04-21 18:04 | 14.43284 | -17.28732 | 6633 ft | 278 kts | 117° |
| 2026-04-21 18:05 | 14.42419 | -17.26984 | 6342 ft | 277 kts | 118° |
| 2026-04-21 18:05 | 14.41543 | -17.25218 | 6052 ft | 276 kts | 117° |
| 2026-04-21 18:05 | 14.40670 | -17.23455 | 5933 ft | 277 kts | 117° |
| 2026-04-21 18:05 | 14.39799 | -17.21698 | 5815 ft | 275 kts | 117° |
| 2026-04-21 18:06 | 14.38926 | -17.19937 | 5711 ft | 276 kts | 117° |
| 2026-04-21 18:06 | 14.38071 | -17.18177 | 5503 ft | 273 kts | 114° |
| 2026-04-21 18:06 | 14.37623 | -17.16280 | 5146 ft | 274 kts | 93° |
| 2026-04-21 18:06 | 14.37599 | -17.14312 | 4799 ft | 274 kts | 89° |
| 2026-04-21 18:07 | 14.37633 | -17.12374 | 4466 ft | 273 kts | 88° |
| 2026-04-21 18:07 | 14.37683 | -17.10424 | 4211 ft | 268 kts | 85° |
| 2026-04-21 18:07 | 14.38201 | -17.08630 | 3999 ft | 261 kts | 54° |
| 2026-04-21 18:07 | 14.39564 | -17.07466 | 3716 ft | 255 kts | 22° |
| 2026-04-21 18:08 | 14.41274 | -17.07027 | 3441 ft | 254 kts | 5° |
| 2026-04-21 18:08 | 14.43036 | -17.07000 | 3207 ft | 252 kts | 358° |
| 2026-04-21 18:08 | 14.44783 | -17.07053 | 3032 ft | 250 kts | 359° |
| 2026-04-21 18:08 | 14.46525 | -17.07083 | 3001 ft | 251 kts | 359° |
| 2026-04-21 18:09 | 14.48216 | -17.07098 | 2997 ft | 237 kts | 0° |
| 2026-04-21 18:09 | 14.49779 | -17.07102 | 2982 ft | 213 kts | 0° |
| 2026-04-21 18:09 | 14.51186 | -17.07121 | 2961 ft | 193 kts | 360° |
| 2026-04-21 18:09 | 14.52485 | -17.07147 | 2834 ft | 180 kts | 359° |
| 2026-04-21 18:10 | 14.53712 | -17.07159 | 2546 ft | 173 kts | 0° |
| 2026-04-21 18:10 | 14.54866 | -17.07167 | 2310 ft | 159 kts | 0° |
| 2026-04-21 18:10 | 14.55934 | -17.07179 | 2104 ft | 148 kts | 2° |
| 2026-04-21 18:10 | 14.56934 | -17.07188 | 1919 ft | 141 kts | 359° |
| 2026-04-21 18:11 | 14.57906 | -17.07194 | 1752 ft | 139 kts | 1° |
| 2026-04-21 18:11 | 14.58864 | -17.07205 | 1569 ft | 139 kts | 359° |
| 2026-04-21 18:11 | 14.59825 | -17.07212 | 1390 ft | 137 kts | 360° |
| 2026-04-21 18:11 | 14.60782 | -17.07223 | 1208 ft | 137 kts | 0° |
| 2026-04-21 18:12 | 14.61736 | -17.07233 | 1032 ft | 137 kts | 359° |
| 2026-04-21 18:12 | 14.62684 | -17.07241 | 841 ft | 136 kts | 1° |
| 2026-04-21 18:12 | 14.63631 | -17.07254 | 678 ft | 136 kts | 1° |
| 2026-04-21 18:12 | 14.64571 | -17.07255 | 502 ft | 134 kts | 359° |
| 2026-04-21 18:13 | 14.65492 | -17.07265 | 351 ft | 131 kts | 359° |
| 2026-04-21 18:13 | 14.66375 | -17.07279 | 299 ft | 114 kts | 359° |
| 2026-04-21 18:13 | 14.66938 | -17.07281 | 306 ft | 37 kts | 360° |
| 2026-04-21 18:13 | 14.67068 | -17.07236 | 306 ft | 15 kts | 65° |
| 2026-04-21 18:14 | 14.67078 | -17.07114 | 300 ft | 3 kts | 89° |
| 2026-04-21 18:14 | 14.67078 | -17.07090 | 300 ft | 5 kts | 89° |
| 2026-04-21 18:14 | 14.67079 | -17.07049 | 298 ft | 2 kts | 90° |
| 2026-04-21 18:15 | 14.67078 | -17.07022 | 302 ft | 4 kts | 90° |
| 2026-04-21 18:15 | 14.67078 | -17.07002 | 300 ft | 3 kts | 90° |
| 2026-04-21 18:15 | 14.67078 | -17.06972 | 300 ft | 5 kts | 89° |
| 2026-04-21 18:15 | 14.67079 | -17.06927 | 300 ft | 7 kts | 89° |
| 2026-04-21 18:16 | 14.67079 | -17.06894 | 300 ft | 3 kts | 90° |
| 2026-04-21 18:16 | 14.67079 | -17.06875 | 300 ft | 3 kts | 91° |
| 2026-04-21 18:16 | 14.67079 | -17.06859 | 300 ft | 1 kts | 90° |